sensor_id;sensor_type;location;lat;lon;timestamp;pressure;altitude;pressure_sealevel;temperature;humidity
39789;BME280;25478;42.626;23.320;2023-02-28T00:00:23;93507.16;;;5.71;100.00
39789;BME280;25478;42.626;23.320;2023-02-28T00:02:49;93522.47;;;5.85;100.00
39789;BME280;25478;42.626;23.320;2023-02-28T00:05:17;93518.25;;;5.80;100.00
39789;BME280;25478;42.626;23.320;2023-02-28T00:07:43;93518.69;;;5.82;100.00
39789;BME280;25478;42.626;23.320;2023-02-28T00:10:12;93519.44;;;5.83;100.00
39789;BME280;25478;42.626;23.320;2023-02-28T00:12:38;93507.41;;;5.66;100.00
39789;BME280;25478;42.626;23.320;2023-02-28T00:15:09;93525.09;;;5.85;100.00
39789;BME280;25478;42.626;23.320;2023-02-28T00:17:35;93523.22;;;5.85;100.00
39789;BME280;25478;42.626;23.320;2023-02-28T00:20:01;93532.16;;;5.84;100.00
39789;BME280;25478;42.626;23.320;2023-02-28T00:22:27;93538.50;;;5.83;100.00
39789;BME280;25478;42.626;23.320;2023-02-28T00:24:52;93529.22;;;5.86;100.00
39789;BME280;25478;42.626;23.320;2023-02-28T00:27:18;93541.94;;;5.87;100.00
39789;BME280;25478;42.626;23.320;2023-02-28T00:29:46;93530.41;;;5.88;100.00
39789;BME280;25478;42.626;23.320;2023-02-28T00:32:11;93535.63;;;5.88;100.00
39789;BME280;25478;42.626;23.320;2023-02-28T00:34:37;93519.59;;;5.74;100.00
39789;BME280;25478;42.626;23.320;2023-02-28T00:37:05;93537.06;;;5.86;100.00
39789;BME280;25478;42.626;23.320;2023-02-28T00:39:34;93527.28;;;5.83;100.00
39789;BME280;25478;42.626;23.320;2023-02-28T00:42:00;93523.28;;;5.73;100.00
39789;BME280;25478;42.626;23.320;2023-02-28T00:44:25;93526.31;;;5.75;100.00
39789;BME280;25478;42.626;23.320;2023-02-28T00:46:52;93517.72;;;5.75;100.00
39789;BME280;25478;42.626;23.320;2023-02-28T00:49:23;93518.91;;;5.77;100.00
39789;BME280;25478;42.626;23.320;2023-02-28T00:51:49;93517.06;;;5.78;100.00
39789;BME280;25478;42.626;23.320;2023-02-28T00:54:17;93522.63;;;5.76;100.00
39789;BME280;25478;42.626;23.320;2023-02-28T00:56:46;93531.56;;;5.75;100.00
39789;BME280;25478;42.626;23.320;2023-02-28T00:59:13;93514.69;;;5.73;100.00
39789;BME280;25478;42.626;23.320;2023-02-28T01:01:39;93516.00;;;5.67;100.00
39789;BME280;25478;42.626;23.320;2023-02-28T01:04:05;93477.38;;;5.32;100.00
39789;BME280;25478;42.626;23.320;2023-02-28T01:06:31;93525.41;;;5.55;100.00
39789;BME280;25478;42.626;23.320;2023-02-28T01:08:57;93527.81;;;5.48;100.00
39789;BME280;25478;42.626;23.320;2023-02-28T01:11:23;93521.28;;;5.42;100.00
39789;BME280;25478;42.626;23.320;2023-02-28T01:13:48;93516.13;;;5.30;100.00
39789;BME280;25478;42.626;23.320;2023-02-28T01:16:14;93520.47;;;5.26;100.00
39789;BME280;25478;42.626;23.320;2023-02-28T01:18:39;93515.56;;;5.24;100.00
39789;BME280;25478;42.626;23.320;2023-02-28T01:21:06;93516.53;;;5.20;100.00
39789;BME280;25478;42.626;23.320;2023-02-28T01:23:32;93518.72;;;5.18;100.00
39789;BME280;25478;42.626;23.320;2023-02-28T01:28:31;93504.81;;;5.14;100.00
39789;BME280;25478;42.626;23.320;2023-02-28T01:30:56;93474.94;;;4.99;100.00
39789;BME280;25478;42.626;23.320;2023-02-28T01:33:22;93510.03;;;5.14;100.00
39789;BME280;25478;42.626;23.320;2023-02-28T01:35:47;93511.91;;;5.13;100.00
39789;BME280;25478;42.626;23.320;2023-02-28T01:38:13;93512.00;;;5.17;100.00
39789;BME280;25478;42.626;23.320;2023-02-28T01:40:39;93519.16;;;5.20;100.00
39789;BME280;25478;42.626;23.320;2023-02-28T01:43:18;93511.22;;;5.16;100.00
39789;BME280;25478;42.626;23.320;2023-02-28T01:45:44;93516.53;;;5.20;100.00
39789;BME280;25478;42.626;23.320;2023-02-28T01:48:10;93524.50;;;5.23;100.00
39789;BME280;25478;42.626;23.320;2023-02-28T01:50:39;93524.25;;;5.28;100.00
39789;BME280;25478;42.626;23.320;2023-02-28T01:53:10;93517.19;;;5.29;100.00
39789;BME280;25478;42.626;23.320;2023-02-28T01:55:36;93522.53;;;5.32;100.00
39789;BME280;25478;42.626;23.320;2023-02-28T01:58:04;93525.56;;;5.34;100.00
39789;BME280;25478;42.626;23.320;2023-02-28T02:00:32;93528.25;;;5.38;100.00
39789;BME280;25478;42.626;23.320;2023-02-28T02:03:06;93497.75;;;5.14;100.00
39789;BME280;25478;42.626;23.320;2023-02-28T02:05:36;93495.69;;;5.07;100.00
39789;BME280;25478;42.626;23.320;2023-02-28T02:08:05;93521.53;;;5.25;100.00
39789;BME280;25478;42.626;23.320;2023-02-28T02:18:48;93514.47;;;5.25;100.00
39789;BME280;25478;42.626;23.320;2023-02-28T02:27:12;93515.66;;;5.28;100.00
39789;BME280;25478;42.626;23.320;2023-02-28T02:38:32;93508.91;;;5.27;100.00
39789;BME280;25478;42.626;23.320;2023-02-28T02:41:27;93508.84;;;5.23;100.00
39789;BME280;25478;42.626;23.320;2023-02-28T02:44:24;93520.16;;;5.15;100.00
39789;BME280;25478;42.626;23.320;2023-02-28T02:47:01;93521.13;;;5.11;100.00
39789;BME280;25478;42.626;23.320;2023-02-28T02:49:31;93521.34;;;5.05;100.00
39789;BME280;25478;42.626;23.320;2023-02-28T02:52:02;93520.91;;;5.03;100.00
39789;BME280;25478;42.626;23.320;2023-02-28T02:54:30;93517.53;;;5.03;100.00
39789;BME280;25478;42.626;23.320;2023-02-28T02:57:03;93518.53;;;4.98;100.00
39789;BME280;25478;42.626;23.320;2023-02-28T02:59:31;93525.81;;;4.93;100.00
39789;BME280;25478;42.626;23.320;2023-02-28T03:02:00;93534.94;;;4.87;100.00
39789;BME280;25478;42.626;23.320;2023-02-28T03:04:30;93521.13;;;4.62;100.00
39789;BME280;25478;42.626;23.320;2023-02-28T03:06:57;93542.97;;;4.69;100.00
39789;BME280;25478;42.626;23.320;2023-02-28T03:09:25;93541.78;;;4.67;100.00
39789;BME280;25478;42.626;23.320;2023-02-28T03:11:52;93544.38;;;4.67;100.00
39789;BME280;25478;42.626;23.320;2023-02-28T03:22:23;93557.66;;;4.74;100.00
39789;BME280;25478;42.626;23.320;2023-02-28T03:31:02;93573.31;;;4.86;100.00
39789;BME280;25478;42.626;23.320;2023-02-28T03:33:37;93554.50;;;4.80;100.00
39789;BME280;25478;42.626;23.320;2023-02-28T03:36:09;93565.59;;;4.90;100.00
39789;BME280;25478;42.626;23.320;2023-02-28T03:38:41;93570.91;;;4.93;100.00
39789;BME280;25478;42.626;23.320;2023-02-28T03:41:19;93566.59;;;4.97;100.00
39789;BME280;25478;42.626;23.320;2023-02-28T03:43:56;93573.00;;;5.00;100.00
39789;BME280;25478;42.626;23.320;2023-02-28T03:46:25;93567.00;;;4.99;100.00
39789;BME280;25478;42.626;23.320;2023-02-28T03:49:17;93579.19;;;4.95;100.00
39789;BME280;25478;42.626;23.320;2023-02-28T03:51:45;93576.47;;;4.92;100.00
39789;BME280;25478;42.626;23.320;2023-02-28T03:54:31;93580.81;;;4.88;100.00
39789;BME280;25478;42.626;23.320;2023-02-28T03:57:03;93569.94;;;4.86;100.00
39789;BME280;25478;42.626;23.320;2023-02-28T03:59:56;93575.91;;;4.86;100.00
39789;BME280;25478;42.626;23.320;2023-02-28T04:02:24;93573.97;;;4.83;100.00
39789;BME280;25478;42.626;23.320;2023-02-28T04:04:50;93569.84;;;4.82;100.00
39789;BME280;25478;42.626;23.320;2023-02-28T04:07:17;93573.88;;;4.79;100.00
39789;BME280;25478;42.626;23.320;2023-02-28T04:09:42;93578.63;;;4.77;100.00
39789;BME280;25478;42.626;23.320;2023-02-28T04:12:08;93576.34;;;4.76;100.00
39789;BME280;25478;42.626;23.320;2023-02-28T04:14:34;93584.94;;;4.76;100.00
39789;BME280;25478;42.626;23.320;2023-02-28T04:16:59;93581.22;;;4.77;100.00
39789;BME280;25478;42.626;23.320;2023-02-28T04:19:25;93578.63;;;4.77;100.00
39789;BME280;25478;42.626;23.320;2023-02-28T04:21:51;93577.44;;;4.75;100.00
39789;BME280;25478;42.626;23.320;2023-02-28T04:24:25;93574.81;;;4.75;100.00
39789;BME280;25478;42.626;23.320;2023-02-28T04:26:54;93568.84;;;4.74;100.00
39789;BME280;25478;42.626;23.320;2023-02-28T04:29:23;93573.50;;;4.69;100.00
39789;BME280;25478;42.626;23.320;2023-02-28T04:31:49;93573.41;;;4.65;100.00
39789;BME280;25478;42.626;23.320;2023-02-28T04:34:15;93572.97;;;4.63;100.00
39789;BME280;25478;42.626;23.320;2023-02-28T04:36:41;93578.47;;;4.62;100.00
39789;BME280;25478;42.626;23.320;2023-02-28T04:39:07;93576.88;;;4.57;100.00
39789;BME280;25478;42.626;23.320;2023-02-28T04:41:35;93585.25;;;4.63;100.00
39789;BME280;25478;42.626;23.320;2023-02-28T04:44:00;93587.53;;;4.64;100.00
39789;BME280;25478;42.626;23.320;2023-02-28T04:46:25;93578.28;;;4.67;100.00
39789;BME280;25478;42.626;23.320;2023-02-28T04:48:51;93590.25;;;4.68;100.00
39789;BME280;25478;42.626;23.320;2023-02-28T04:51:18;93583.16;;;4.68;100.00
39789;BME280;25478;42.626;23.320;2023-02-28T04:53:44;93602.50;;;4.67;100.00
39789;BME280;25478;42.626;23.320;2023-02-28T04:56:12;93609.34;;;4.60;100.00
39789;BME280;25478;42.626;23.320;2023-02-28T04:58:38;93583.00;;;4.40;100.00
39789;BME280;25478;42.626;23.320;2023-02-28T05:03:51;93604.88;;;4.48;100.00
39789;BME280;25478;42.626;23.320;2023-02-28T05:06:17;93608.34;;;4.52;100.00
39789;BME280;25478;42.626;23.320;2023-02-28T05:08:43;93593.13;;;4.42;100.00
39789;BME280;25478;42.626;23.320;2023-02-28T05:13:43;93611.94;;;4.60;100.00
39789;BME280;25478;42.626;23.320;2023-02-28T05:16:08;93607.81;;;4.59;100.00
39789;BME280;25478;42.626;23.320;2023-02-28T05:18:34;93608.59;;;4.59;100.00
39789;BME280;25478;42.626;23.320;2023-02-28T05:20:59;93617.16;;;4.60;100.00
39789;BME280;25478;42.626;23.320;2023-02-28T05:23:27;93615.00;;;4.62;100.00
39789;BME280;25478;42.626;23.320;2023-02-28T05:25:53;93621.75;;;4.63;100.00
39789;BME280;25478;42.626;23.320;2023-02-28T05:28:19;93611.44;;;4.66;100.00
39789;BME280;25478;42.626;23.320;2023-02-28T05:30:45;93615.56;;;4.67;100.00
39789;BME280;25478;42.626;23.320;2023-02-28T05:33:11;93596.53;;;4.55;100.00
39789;BME280;25478;42.626;23.320;2023-02-28T05:35:41;93621.34;;;4.73;100.00
39789;BME280;25478;42.626;23.320;2023-02-28T05:38:08;93625.13;;;4.75;100.00
39789;BME280;25478;42.626;23.320;2023-02-28T05:40:33;93620.78;;;4.67;100.00
39789;BME280;25478;42.626;23.320;2023-02-28T05:42:59;93635.38;;;4.80;100.00
39789;BME280;25478;42.626;23.320;2023-02-28T05:45:24;93634.38;;;4.85;100.00
39789;BME280;25478;42.626;23.320;2023-02-28T05:47:53;93639.41;;;4.90;100.00
39789;BME280;25478;42.626;23.320;2023-02-28T05:50:19;93638.41;;;4.95;100.00
39789;BME280;25478;42.626;23.320;2023-02-28T05:52:49;93645.28;;;4.99;100.00
39789;BME280;25478;42.626;23.320;2023-02-28T05:55:15;93639.41;;;5.02;100.00
39789;BME280;25478;42.626;23.320;2023-02-28T05:57:40;93631.81;;;4.97;100.00
39789;BME280;25478;42.626;23.320;2023-02-28T06:00:06;93629.22;;;5.09;100.00
39789;BME280;25478;42.626;23.320;2023-02-28T06:02:39;93620.63;;;4.97;100.00
39789;BME280;25478;42.626;23.320;2023-02-28T06:05:07;93640.31;;;5.06;100.00
39789;BME280;25478;42.626;23.320;2023-02-28T06:07:37;93643.34;;;5.08;100.00
39789;BME280;25478;42.626;23.320;2023-02-28T06:10:02;93650.41;;;5.08;100.00
39789;BME280;25478;42.626;23.320;2023-02-28T06:12:28;93641.81;;;5.07;100.00
39789;BME280;25478;42.626;23.320;2023-02-28T06:14:53;93635.31;;;5.14;100.00
39789;BME280;25478;42.626;23.320;2023-02-28T06:17:19;93639.97;;;5.20;100.00
39789;BME280;25478;42.626;23.320;2023-02-28T06:19:44;93640.53;;;5.26;100.00
39789;BME280;25478;42.626;23.320;2023-02-28T06:22:10;93644.88;;;5.34;100.00
39789;BME280;25478;42.626;23.320;2023-02-28T06:24:35;93621.59;;;5.29;100.00
39789;BME280;25478;42.626;23.320;2023-02-28T06:27:01;93643.34;;;5.45;100.00
39789;BME280;25478;42.626;23.320;2023-02-28T06:29:34;93633.38;;;5.47;100.00
39789;BME280;25478;42.626;23.320;2023-02-28T06:32:00;93654.44;;;5.54;100.00
39789;BME280;25478;42.626;23.320;2023-02-28T06:34:25;93651.63;;;5.59;100.00
39789;BME280;25478;42.626;23.320;2023-02-28T06:36:51;93648.81;;;5.64;100.00
39789;BME280;25478;42.626;23.320;2023-02-28T06:39:17;93656.81;;;5.72;100.00
39789;BME280;25478;42.626;23.320;2023-02-28T06:41:43;93629.00;;;5.63;100.00
39789;BME280;25478;42.626;23.320;2023-02-28T06:44:15;93657.91;;;5.83;100.00
39789;BME280;25478;42.626;23.320;2023-02-28T06:46:43;93662.13;;;5.87;100.00
39789;BME280;25478;42.626;23.320;2023-02-28T06:49:09;93656.50;;;5.85;100.00
39789;BME280;25478;42.626;23.320;2023-02-28T06:51:37;93665.22;;;5.89;100.00
39789;BME280;25478;42.626;23.320;2023-02-28T06:54:03;93667.06;;;5.89;100.00
39789;BME280;25478;42.626;23.320;2023-02-28T06:56:29;93669.56;;;5.85;100.00
39789;BME280;25478;42.626;23.320;2023-02-28T06:58:55;93674.13;;;5.88;100.00
39789;BME280;25478;42.626;23.320;2023-02-28T07:01:21;93673.25;;;5.97;100.00
39789;BME280;25478;42.626;23.320;2023-02-28T07:03:50;93648.78;;;5.89;100.00
39789;BME280;25478;42.626;23.320;2023-02-28T07:06:20;93677.19;;;6.03;100.00
39789;BME280;25478;42.626;23.320;2023-02-28T07:08:48;93670.22;;;6.07;100.00
39789;BME280;25478;42.626;23.320;2023-02-28T07:11:14;93674.78;;;6.10;100.00
39789;BME280;25478;42.626;23.320;2023-02-28T07:13:40;93668.78;;;6.09;100.00
39789;BME280;25478;42.626;23.320;2023-02-28T07:16:07;93656.91;;;6.12;100.00
39789;BME280;25478;42.626;23.320;2023-02-28T07:18:34;93667.56;;;6.19;100.00
39789;BME280;25478;42.626;23.320;2023-02-28T07:21:02;93665.28;;;6.17;100.00
39789;BME280;25478;42.626;23.320;2023-02-28T07:23:28;93672.31;;;6.29;100.00
39789;BME280;25478;42.626;23.320;2023-02-28T07:25:53;93675.03;;;6.33;100.00
39789;BME280;25478;42.626;23.320;2023-02-28T07:28:19;93672.50;;;6.36;100.00
39789;BME280;25478;42.626;23.320;2023-02-28T07:30:44;93669.00;;;6.44;100.00
39789;BME280;25478;42.626;23.320;2023-02-28T07:33:10;93674.44;;;6.52;100.00
39789;BME280;25478;42.626;23.320;2023-02-28T07:35:36;93674.72;;;6.62;100.00
39789;BME280;25478;42.626;23.320;2023-02-28T07:38:02;93678.69;;;6.72;100.00
39789;BME280;25478;42.626;23.320;2023-02-28T07:40:28;93680.41;;;6.80;100.00
39789;BME280;25478;42.626;23.320;2023-02-28T07:42:53;93686.94;;;6.86;100.00
39789;BME280;25478;42.626;23.320;2023-02-28T07:45:19;93668.41;;;6.79;100.00
39789;BME280;25478;42.626;23.320;2023-02-28T07:47:45;93680.44;;;6.96;100.00
39789;BME280;25478;42.626;23.320;2023-02-28T07:50:13;93669.31;;;6.99;100.00
39789;BME280;25478;42.626;23.320;2023-02-28T07:52:39;93668.41;;;7.07;100.00
39789;BME280;25478;42.626;23.320;2023-02-28T07:55:06;93669.22;;;7.11;100.00
39789;BME280;25478;42.626;23.320;2023-02-28T07:57:32;93663.66;;;7.13;100.00
39789;BME280;25478;42.626;23.320;2023-02-28T07:59:58;93667.78;;;7.14;100.00
39789;BME280;25478;42.626;23.320;2023-02-28T08:02:24;93669.34;;;7.15;100.00
39789;BME280;25478;42.626;23.320;2023-02-28T08:04:49;93618.81;;;6.83;100.00
39789;BME280;25478;42.626;23.320;2023-02-28T08:07:16;93670.41;;;7.14;100.00
39789;BME280;25478;42.626;23.320;2023-02-28T08:09:43;93669.41;;;7.18;100.00
39789;BME280;25478;42.626;23.320;2023-02-28T08:12:09;93653.34;;;7.04;100.00
39789;BME280;25478;42.626;23.320;2023-02-28T08:14:36;93665.09;;;7.10;100.00
39789;BME280;25478;42.626;23.320;2023-02-28T08:17:01;93651.31;;;6.97;100.00
39789;BME280;25478;42.626;23.320;2023-02-28T08:19:27;93666.53;;;7.08;100.00
39789;BME280;25478;42.626;23.320;2023-02-28T08:21:54;93671.00;;;7.07;100.00
39789;BME280;25478;42.626;23.320;2023-02-28T08:24:19;93678.34;;;7.01;100.00
39789;BME280;25478;42.626;23.320;2023-02-28T08:26:45;93674.88;;;6.97;100.00
39789;BME280;25478;42.626;23.320;2023-02-28T08:29:10;93663.47;;;6.90;100.00
39789;BME280;25478;42.626;23.320;2023-02-28T08:31:35;93660.34;;;6.84;100.00
39789;BME280;25478;42.626;23.320;2023-02-28T08:34:09;93683.25;;;7.03;100.00
39789;BME280;25478;42.626;23.320;2023-02-28T08:36:37;93678.94;;;7.11;100.00
39789;BME280;25478;42.626;23.320;2023-02-28T08:39:03;93682.56;;;7.22;100.00
39789;BME280;25478;42.626;23.320;2023-02-28T08:41:28;93684.72;;;7.32;100.00
39789;BME280;25478;42.626;23.320;2023-02-28T08:43:55;93676.50;;;7.33;100.00
39789;BME280;25478;42.626;23.320;2023-02-28T08:46:20;93674.66;;;7.34;100.00
39789;BME280;25478;42.626;23.320;2023-02-28T08:48:46;93683.09;;;7.43;100.00
39789;BME280;25478;42.626;23.320;2023-02-28T08:51:14;93687.75;;;7.50;100.00
39789;BME280;25478;42.626;23.320;2023-02-28T08:53:41;93682.25;;;7.55;100.00
39789;BME280;25478;42.626;23.320;2023-02-28T08:56:12;93683.25;;;7.66;100.00
39789;BME280;25478;42.626;23.320;2023-02-28T08:58:39;93677.25;;;7.66;100.00
39789;BME280;25478;42.626;23.320;2023-02-28T09:01:19;93685.94;;;7.70;100.00
39789;BME280;25478;42.626;23.320;2023-02-28T09:03:46;93682.56;;;7.69;100.00
39789;BME280;25478;42.626;23.320;2023-02-28T09:06:13;93680.31;;;7.68;100.00
39789;BME280;25478;42.626;23.320;2023-02-28T09:08:40;93682.91;;;7.68;100.00
39789;BME280;25478;42.626;23.320;2023-02-28T09:11:06;93682.75;;;7.60;100.00
39789;BME280;25478;42.626;23.320;2023-02-28T09:13:31;93658.84;;;7.46;100.00
39789;BME280;25478;42.626;23.320;2023-02-28T09:15:59;93674.47;;;7.58;100.00
39789;BME280;25478;42.626;23.320;2023-02-28T09:18:25;93684.78;;;7.67;100.00
39789;BME280;25478;42.626;23.320;2023-02-28T09:20:51;93680.53;;;7.78;100.00
39789;BME280;25478;42.626;23.320;2023-02-28T09:23:17;93681.97;;;7.92;100.00
39789;BME280;25478;42.626;23.320;2023-02-28T09:25:54;93676.69;;;8.07;100.00
39789;BME280;25478;42.626;23.320;2023-02-28T09:28:20;93677.81;;;8.26;100.00
39789;BME280;25478;42.626;23.320;2023-02-28T09:30:48;93673.28;;;8.42;100.00
39789;BME280;25478;42.626;23.320;2023-02-28T09:33:14;93668.75;;;8.58;100.00
39789;BME280;25478;42.626;23.320;2023-02-28T09:35:40;93672.94;;;8.63;100.00
39789;BME280;25478;42.626;23.320;2023-02-28T09:38:06;93669.97;;;8.64;100.00
39789;BME280;25478;42.626;23.320;2023-02-28T09:40:38;93670.44;;;8.70;99.46
39789;BME280;25478;42.626;23.320;2023-02-28T09:43:05;93657.28;;;8.66;99.16
39789;BME280;25478;42.626;23.320;2023-02-28T09:45:40;93659.72;;;8.79;97.80
39789;BME280;25478;42.626;23.320;2023-02-28T09:48:11;93662.50;;;8.86;98.00
39789;BME280;25478;42.626;23.320;2023-02-28T09:50:55;93665.94;;;8.90;96.84
39789;BME280;25478;42.626;23.320;2023-02-28T09:55:58;93659.16;;;9.08;96.21
39789;BME280;25478;42.626;23.320;2023-02-28T10:01:00;93656.44;;;9.27;94.69
39789;BME280;25478;42.626;23.320;2023-02-28T10:03:47;93659.25;;;9.38;94.26
39789;BME280;25478;42.626;23.320;2023-02-28T10:06:27;93658.53;;;9.41;93.29
39789;BME280;25478;42.626;23.320;2023-02-28T10:09:01;93631.47;;;9.37;93.23
39789;BME280;25478;42.626;23.320;2023-02-28T10:11:29;93648.66;;;9.57;92.31
39789;BME280;25478;42.626;23.320;2023-02-28T10:14:13;93651.00;;;9.63;91.54
39789;BME280;25478;42.626;23.320;2023-02-28T10:16:46;93643.56;;;9.68;91.12
39789;BME280;25478;42.626;23.320;2023-02-28T10:19:23;93647.34;;;9.71;90.63
39789;BME280;25478;42.626;23.320;2023-02-28T10:27:14;93636.19;;;9.77;90.23
39789;BME280;25478;42.626;23.320;2023-02-28T10:29:43;93637.09;;;9.88;90.27
39789;BME280;25478;42.626;23.320;2023-02-28T10:32:11;93627.53;;;10.03;89.55
39789;BME280;25478;42.626;23.320;2023-02-28T10:34:39;93627.81;;;10.25;89.08
39789;BME280;25478;42.626;23.320;2023-02-28T10:37:04;93623.59;;;10.50;88.27
39789;BME280;25478;42.626;23.320;2023-02-28T10:39:39;93622.72;;;10.73;86.60
39789;BME280;25478;42.626;23.320;2023-02-28T10:42:19;93610.41;;;10.84;84.97
39789;BME280;25478;42.626;23.320;2023-02-28T10:44:45;93609.34;;;10.88;84.33
39789;BME280;25478;42.626;23.320;2023-02-28T10:47:15;93609.72;;;10.90;83.51
39789;BME280;25478;42.626;23.320;2023-02-28T10:49:47;93602.63;;;10.94;83.73
39789;BME280;25478;42.626;23.320;2023-02-28T10:52:36;93601.25;;;11.11;83.76
39789;BME280;25478;42.626;23.320;2023-02-28T10:55:23;93597.91;;;11.14;82.79
39789;BME280;25478;42.626;23.320;2023-02-28T10:57:51;93593.00;;;11.16;82.11
39789;BME280;25478;42.626;23.320;2023-02-28T11:00:23;93588.09;;;11.15;81.22
39789;BME280;25478;42.626;23.320;2023-02-28T11:02:52;93589.16;;;11.03;81.50
39789;BME280;25478;42.626;23.320;2023-02-28T11:05:25;93582.31;;;10.98;81.21
39789;BME280;25478;42.626;23.320;2023-02-28T11:07:53;93536.44;;;10.59;81.22
39789;BME280;25478;42.626;23.320;2023-02-28T11:10:21;93581.13;;;10.92;80.92
39789;BME280;25478;42.626;23.320;2023-02-28T11:12:49;93582.63;;;10.90;81.20
39789;BME280;25478;42.626;23.320;2023-02-28T11:17:54;93581.88;;;10.93;80.45
39789;BME280;25478;42.626;23.320;2023-02-28T11:20:23;93574.25;;;10.81;80.66
39789;BME280;25478;42.626;23.320;2023-02-28T11:22:50;93577.94;;;10.73;80.64
39789;BME280;25478;42.626;23.320;2023-02-28T11:25:32;93571.84;;;10.61;81.20
39789;BME280;25478;42.626;23.320;2023-02-28T11:28:04;93574.84;;;10.63;81.30
39789;BME280;25478;42.626;23.320;2023-02-28T11:33:01;93568.06;;;10.62;81.60
39789;BME280;25478;42.626;23.320;2023-02-28T11:35:43;93568.84;;;10.66;81.59
39789;BME280;25478;42.626;23.320;2023-02-28T11:38:11;93555.66;;;10.63;81.60
39789;BME280;25478;42.626;23.320;2023-02-28T11:44:11;93564.72;;;10.65;80.43
39789;BME280;25478;42.626;23.320;2023-02-28T11:46:58;93562.06;;;10.62;80.85
39789;BME280;25478;42.626;23.320;2023-02-28T11:55:39;93550.13;;;10.75;80.28
39789;BME280;25478;42.626;23.320;2023-02-28T12:04:23;93548.09;;;10.58;80.62
39789;BME280;25478;42.626;23.320;2023-02-28T12:07:01;93526.50;;;10.41;80.19
39789;BME280;25478;42.626;23.320;2023-02-28T12:09:53;93551.84;;;10.57;80.65
39789;BME280;25478;42.626;23.320;2023-02-28T12:13:06;93549.66;;;10.62;80.83
39789;BME280;25478;42.626;23.320;2023-02-28T12:18:47;93522.03;;;10.46;80.56
39789;BME280;25478;42.626;23.320;2023-02-28T12:26:44;93538.47;;;10.76;80.73
39789;BME280;25478;42.626;23.320;2023-02-28T12:29:53;93535.09;;;10.76;80.85
39789;BME280;25478;42.626;23.320;2023-02-28T12:32:25;93538.88;;;10.78;80.60
39789;BME280;25478;42.626;23.320;2023-02-28T12:35:14;93535.06;;;10.72;80.36
39789;BME280;25478;42.626;23.320;2023-02-28T12:37:45;93543.28;;;10.67;80.19
39789;BME280;25478;42.626;23.320;2023-02-28T12:40:16;93539.13;;;10.66;80.55
39789;BME280;25478;42.626;23.320;2023-02-28T12:42:57;93539.13;;;10.62;80.06
39789;BME280;25478;42.626;23.320;2023-02-28T12:45:34;93532.63;;;10.53;80.76
39789;BME280;25478;42.626;23.320;2023-02-28T12:48:11;93537.97;;;10.60;80.62
39789;BME280;25478;42.626;23.320;2023-02-28T12:50:40;93542.41;;;10.52;80.68
39789;BME280;25478;42.626;23.320;2023-02-28T12:53:21;93539.34;;;10.47;80.75
39789;BME280;25478;42.626;23.320;2023-02-28T12:55:59;93513.63;;;10.33;80.91
39789;BME280;25478;42.626;23.320;2023-02-28T13:01:12;93532.84;;;10.37;81.18
39789;BME280;25478;42.626;23.320;2023-02-28T13:06:44;93527.94;;;10.35;81.41
39789;BME280;25478;42.626;23.320;2023-02-28T13:09:18;93540.69;;;10.33;81.68
39789;BME280;25478;42.626;23.320;2023-02-28T13:11:49;93521.00;;;10.20;81.87
39789;BME280;25478;42.626;23.320;2023-02-28T13:17:12;93542.69;;;10.10;82.14
39789;BME280;25478;42.626;23.320;2023-02-28T13:24:52;93524.84;;;9.96;83.19
39789;BME280;25478;42.626;23.320;2023-02-28T13:29:51;93534.63;;;9.96;83.35
39789;BME280;25478;42.626;23.320;2023-02-28T13:32:29;93534.63;;;9.96;82.73
39789;BME280;25478;42.626;23.320;2023-02-28T14:01:32;93512.69;;;9.54;82.46
39789;BME280;25478;42.626;23.320;2023-02-28T14:06:49;93514.47;;;9.47;83.17
39789;BME280;25478;42.626;23.320;2023-02-28T14:11:49;93520.53;;;9.51;83.68
39789;BME280;25478;42.626;23.320;2023-02-28T14:17:13;93515.28;;;9.51;83.45
39789;BME280;25478;42.626;23.320;2023-02-28T14:19:40;93514.44;;;9.43;83.55
39789;BME280;25478;42.626;23.320;2023-02-28T14:22:43;93508.31;;;9.36;83.65
39789;BME280;25478;42.626;23.320;2023-02-28T14:33:24;93520.19;;;9.26;83.41
39789;BME280;25478;42.626;23.320;2023-02-28T14:38:33;93508.63;;;9.30;82.83
39789;BME280;25478;42.626;23.320;2023-02-28T14:41:04;93508.25;;;9.32;82.52
39789;BME280;25478;42.626;23.320;2023-02-28T14:43:32;93506.81;;;9.35;82.75
39789;BME280;25478;42.626;23.320;2023-02-28T14:46:02;93500.81;;;9.34;81.93
39789;BME280;25478;42.626;23.320;2023-02-28T14:48:29;93515.09;;;9.37;82.34
39789;BME280;25478;42.626;23.320;2023-02-28T14:51:00;93509.47;;;9.38;82.41
39789;BME280;25478;42.626;23.320;2023-02-28T14:53:28;93504.97;;;9.39;81.85
39789;BME280;25478;42.626;23.320;2023-02-28T14:55:55;93501.19;;;9.36;81.90
39789;BME280;25478;42.626;23.320;2023-02-28T14:58:25;93517.34;;;9.38;82.04
39789;BME280;25478;42.626;23.320;2023-02-28T15:00:53;93478.44;;;9.17;81.43
39789;BME280;25478;42.626;23.320;2023-02-28T15:03:39;93509.84;;;9.37;81.21
39789;BME280;25478;42.626;23.320;2023-02-28T15:06:16;93493.25;;;9.32;81.18
39789;BME280;25478;42.626;23.320;2023-02-28T15:08:43;93503.44;;;9.34;81.15
39789;BME280;25478;42.626;23.320;2023-02-28T15:11:14;93500.72;;;9.30;81.40
39789;BME280;25478;42.626;23.320;2023-02-28T15:13:50;93501.84;;;9.29;81.32
39789;BME280;25478;42.626;23.320;2023-02-28T15:16:20;93485.88;;;9.15;81.56
39789;BME280;25478;42.626;23.320;2023-02-28T15:19:04;93501.38;;;9.24;80.91
39789;BME280;25478;42.626;23.320;2023-02-28T15:21:35;93511.50;;;9.22;81.24
39789;BME280;25478;42.626;23.320;2023-02-28T15:24:08;93506.22;;;9.18;81.46
39789;BME280;25478;42.626;23.320;2023-02-28T15:26:39;93504.69;;;9.17;81.90
39789;BME280;25478;42.626;23.320;2023-02-28T15:29:17;93520.75;;;9.12;82.01
39789;BME280;25478;42.626;23.320;2023-02-28T15:32:05;93519.53;;;9.06;82.09